createdAt,value
2018-05-10T00:02:21.536Z,13.68
2018-05-10T00:04:48.599Z,13.69
2018-05-10T00:07:15.666Z,13.40
2018-05-10T00:09:42.723Z,13.23
2018-05-10T00:12:09.768Z,13.16
2018-05-10T00:14:36.862Z,13.08
2018-05-10T00:17:03.937Z,13.32
2018-05-10T00:19:31.017Z,13.77
2018-05-10T00:21:58.114Z,14.00
2018-05-10T00:24:25.298Z,13.66
2018-05-10T00:26:52.358Z,13.53
2018-05-10T00:29:19.428Z,13.35
2018-05-10T00:31:46.537Z,13.16
2018-05-10T00:34:13.602Z,13.04
2018-05-10T00:36:40.671Z,13.07
2018-05-10T00:39:07.737Z,13.17
2018-05-10T00:41:34.794Z,13.28
2018-05-10T00:44:01.874Z,13.43
2018-05-10T00:46:28.952Z,13.52
2018-05-10T00:48:56.030Z,13.58
2018-05-10T00:51:23.104Z,13.62
2018-05-10T00:53:50.226Z,13.72
2018-05-10T00:56:17.456Z,13.78
2018-05-10T00:58:44.562Z,13.85
2018-05-10T01:01:11.654Z,14.09
2018-05-10T01:03:38.785Z,14.27
2018-05-10T01:06:06.009Z,14.33
2018-05-10T01:08:33.100Z,14.23
2018-05-10T01:11:00.175Z,13.95
2018-05-10T01:13:27.295Z,13.93
2018-05-10T01:15:54.364Z,13.88
2018-05-10T01:18:21.435Z,13.80
2018-05-10T01:20:48.506Z,13.74
2018-05-10T01:23:15.579Z,13.60
2018-05-10T01:25:42.671Z,13.26
2018-05-10T01:28:09.735Z,13.21
2018-05-10T01:30:36.803Z,12.99
2018-05-10T01:33:04.003Z,13.00
2018-05-10T01:35:36.963Z,12.91
2018-05-10T01:38:04.032Z,12.83
2018-05-10T01:40:31.583Z,12.67
2018-05-10T01:42:58.654Z,12.67
2018-05-10T01:45:25.820Z,12.68
2018-05-10T01:47:52.964Z,12.69
2018-05-10T01:50:20.055Z,12.70
2018-05-10T01:52:47.110Z,12.63
2018-05-10T01:55:14.232Z,12.58
2018-05-10T01:57:41.419Z,12.54
2018-05-10T02:00:08.524Z,12.49
2018-05-10T02:02:35.633Z,12.43
2018-05-10T02:05:02.836Z,12.41
2018-05-10T02:07:30.194Z,12.42
2018-05-10T02:09:57.273Z,12.33
2018-05-10T02:12:24.320Z,12.32
2018-05-10T02:14:51.495Z,12.22
2018-05-10T02:17:18.536Z,12.19
2018-05-10T02:19:45.614Z,12.10
2018-05-10T02:22:13.152Z,12.10
2018-05-10T02:24:40.684Z,12.19
2018-05-10T02:27:07.755Z,12.29
2018-05-10T02:29:35.964Z,12.25
2018-05-10T02:32:03.488Z,12.27
2018-05-10T02:34:31.021Z,12.18
2018-05-10T02:36:58.102Z,12.22
2018-05-10T02:39:25.638Z,12.32
2018-05-10T02:41:53.180Z,12.35
2018-05-10T02:44:20.834Z,12.44
2018-05-10T02:46:48.367Z,12.45
2018-05-10T02:49:15.885Z,12.53
2018-05-10T02:51:43.431Z,12.52
2018-05-10T02:54:10.965Z,12.53
2018-05-10T02:56:38.490Z,12.52
2018-05-10T02:59:05.996Z,12.53
2018-05-10T03:01:33.623Z,12.62
2018-05-10T03:04:01.159Z,12.63
2018-05-10T03:06:28.751Z,12.61
2018-05-10T03:08:56.520Z,12.70
2018-05-10T03:11:24.131Z,12.79
2018-05-10T03:13:51.260Z,12.83
2018-05-10T03:16:18.321Z,12.84
2018-05-10T03:18:45.403Z,12.79
2018-05-10T03:21:12.477Z,12.71
2018-05-10T03:23:39.550Z,12.65
2018-05-10T03:26:06.656Z,12.68
2018-05-10T03:28:33.724Z,12.72
2018-05-10T03:31:00.793Z,12.80
2018-05-10T03:33:27.871Z,12.76
2018-05-10T03:35:55.000Z,12.75
2018-05-10T03:38:22.091Z,12.67
2018-05-10T03:40:49.201Z,12.68
2018-05-10T03:43:16.354Z,12.71
2018-05-10T03:45:43.410Z,12.74
2018-05-10T03:48:10.483Z,12.76
2018-05-10T03:50:37.549Z,12.82
2018-05-10T03:53:04.623Z,12.85
2018-05-10T03:55:31.690Z,12.81
2018-05-10T03:57:58.765Z,12.81
2018-05-10T04:00:25.829Z,12.88
2018-05-10T04:05:52.485Z,12.87
2018-05-10T04:08:26.076Z,13.00
2018-05-10T04:10:58.951Z,13.04
2018-05-10T04:13:26.271Z,12.96
2018-05-10T04:15:53.561Z,13.10
2018-05-10T04:18:20.631Z,13.23
2018-05-10T04:20:47.710Z,13.31
2018-05-10T04:23:14.790Z,13.40
2018-05-10T04:25:41.921Z,13.45
2018-05-10T04:28:09.116Z,13.48
2018-05-10T04:30:36.190Z,13.48
2018-05-10T04:33:03.265Z,13.44
2018-05-10T04:35:30.331Z,13.50
2018-05-10T04:37:57.399Z,13.49
2018-05-10T04:40:24.455Z,13.57
2018-05-10T04:42:51.550Z,13.69
2018-05-10T04:45:18.740Z,13.70
2018-05-10T04:47:45.809Z,13.74
2018-05-10T04:50:12.901Z,13.72
2018-05-10T04:52:39.987Z,13.72
2018-05-10T04:55:07.111Z,13.80
2018-05-10T04:57:34.315Z,13.86
2018-05-10T05:00:01.444Z,13.99
2018-05-10T05:02:28.671Z,14.06
2018-05-10T05:04:55.735Z,14.20
2018-05-10T05:07:23.405Z,14.33
2018-05-10T05:09:50.505Z,14.56
2018-05-10T05:12:17.774Z,14.61
2018-05-10T05:14:44.831Z,14.92
2018-05-10T05:17:11.909Z,15.16
2018-05-10T05:19:38.986Z,15.40
2018-05-10T05:22:06.052Z,15.57
2018-05-10T05:24:33.160Z,15.65
2018-05-10T05:27:01.366Z,15.70
2018-05-10T05:29:28.437Z,15.90
2018-05-10T05:31:55.502Z,16.00
2018-05-10T05:34:22.590Z,16.11
2018-05-10T05:36:49.660Z,16.43
2018-05-10T05:39:16.761Z,16.50
2018-05-10T05:41:44.070Z,16.44
2018-05-10T05:44:11.185Z,16.39
2018-05-10T05:46:38.271Z,16.56
2018-05-10T05:49:05.325Z,16.50
2018-05-10T05:51:32.401Z,17.49
2018-05-10T05:53:59.500Z,19.14
2018-05-10T05:56:26.619Z,19.43
2018-05-10T05:58:53.806Z,18.42
2018-05-10T06:01:21.120Z,17.69
2018-05-10T06:03:48.200Z,17.48
2018-05-10T06:06:15.289Z,16.97
2018-05-10T06:08:42.403Z,16.76
2018-05-10T06:11:09.479Z,16.79
2018-05-10T06:13:36.784Z,16.81
2018-05-10T06:16:04.009Z,16.62
2018-05-10T06:18:31.030Z,16.72
2018-05-10T06:20:58.205Z,16.70
2018-05-10T06:23:25.290Z,16.66
2018-05-10T06:25:52.380Z,16.62
2018-05-10T06:28:19.487Z,16.54
2018-05-10T06:30:46.682Z,16.41
2018-05-10T06:33:14.047Z,16.40
2018-05-10T06:35:41.341Z,16.53
2018-05-10T06:38:08.801Z,16.75
2018-05-10T06:40:36.054Z,17.02
2018-05-10T06:43:03.185Z,17.37
2018-05-10T06:45:30.302Z,17.61
2018-05-10T06:47:57.538Z,18.21
2018-05-10T06:50:24.824Z,18.51
2018-05-10T06:52:52.020Z,18.77
2018-05-10T06:55:19.422Z,19.39
2018-05-10T06:57:46.578Z,20.55
2018-05-10T07:00:14.043Z,22.41
2018-05-10T07:02:41.581Z,23.44
2018-05-10T07:05:09.253Z,24.24
2018-05-10T07:07:36.844Z,23.84
2018-05-10T07:10:04.392Z,24.16
2018-05-10T07:12:31.932Z,23.80
2018-05-10T07:14:59.989Z,23.27
2018-05-10T07:17:27.596Z,22.50
2018-05-10T07:19:55.424Z,22.64
2018-05-10T07:22:23.297Z,23.01
2018-05-10T07:24:50.805Z,23.31
2018-05-10T07:27:18.390Z,22.40
2018-05-10T07:29:46.171Z,23.33
2018-05-10T07:32:13.688Z,23.55
2018-05-10T07:34:41.293Z,23.90
2018-05-10T07:37:09.283Z,24.25
2018-05-10T07:39:36.902Z,24.80
2018-05-10T07:42:04.581Z,24.91
2018-05-10T07:44:32.351Z,25.21
2018-05-10T07:46:59.892Z,25.42
2018-05-10T07:49:27.561Z,26.46
2018-05-10T07:51:55.177Z,27.15
2018-05-10T07:54:22.848Z,26.66
2018-05-10T07:56:50.376Z,24.67
2018-05-10T07:59:17.986Z,23.52
2018-05-10T08:01:45.698Z,22.75
2018-05-10T08:04:13.237Z,23.21
2018-05-10T08:06:40.819Z,24.52
2018-05-10T08:09:08.358Z,22.69
2018-05-10T08:11:35.982Z,21.45
2018-05-10T08:14:07.566Z,22.40
2018-05-10T08:16:35.117Z,21.51
2018-05-10T08:19:02.659Z,21.24
2018-05-10T08:21:31.101Z,20.23
2018-05-10T08:23:58.451Z,21.09
2018-05-10T08:26:25.681Z,20.92
2018-05-10T08:28:53.326Z,20.94
2018-05-10T08:31:20.867Z,20.39
2018-05-10T08:33:47.943Z,20.13
2018-05-10T08:36:15.008Z,20.26
2018-05-10T08:38:42.128Z,19.56
2018-05-10T08:41:09.223Z,19.85
2018-05-10T08:43:36.360Z,19.29
2018-05-10T08:46:03.438Z,19.75
2018-05-10T08:48:30.550Z,19.51
2018-05-10T08:50:57.603Z,19.38
2018-05-10T08:53:24.725Z,18.98
2018-05-10T08:55:51.828Z,19.42
2018-05-10T08:58:18.879Z,19.51
2018-05-10T09:00:46.004Z,19.11
2018-05-10T09:03:13.104Z,18.51
2018-05-10T09:05:40.342Z,18.37
2018-05-10T09:08:07.741Z,18.29
2018-05-10T09:10:34.836Z,18.19
2018-05-10T09:13:02.051Z,18.23
2018-05-10T09:15:29.368Z,18.34
2018-05-10T09:17:56.516Z,17.92
2018-05-10T09:20:23.775Z,17.90
2018-05-10T09:22:50.960Z,17.22
2018-05-10T09:25:18.237Z,17.38
2018-05-10T09:27:45.443Z,17.41
2018-05-10T09:30:13.357Z,17.59
2018-05-10T09:32:40.477Z,17.59
2018-05-10T09:35:07.708Z,17.36
2018-05-10T09:37:34.845Z,16.97
2018-05-10T09:40:02.116Z,17.08
2018-05-10T09:42:29.459Z,17.03
2018-05-10T09:44:57.724Z,16.99
2018-05-10T09:47:25.098Z,17.38
2018-05-10T09:49:52.225Z,17.36
2018-05-10T09:52:19.436Z,16.83
2018-05-10T09:54:46.749Z,17.02
2018-05-10T09:57:13.900Z,17.27
2018-05-10T09:59:40.987Z,17.80
2018-05-10T10:02:08.103Z,17.76
2018-05-10T10:04:35.436Z,18.40
2018-05-10T10:07:03.196Z,17.92
2018-05-10T10:09:30.319Z,18.29
2018-05-10T10:11:57.763Z,18.66
2018-05-10T10:14:25.621Z,19.28
2018-05-10T10:16:52.734Z,19.46
2018-05-10T10:19:20.107Z,19.95
2018-05-10T10:21:47.289Z,20.40
2018-05-10T10:24:14.388Z,20.25
2018-05-10T10:26:41.613Z,20.37
2018-05-10T10:29:08.718Z,20.25
2018-05-10T10:31:35.827Z,20.03
2018-05-10T10:34:03.198Z,20.12
2018-05-10T10:36:30.529Z,19.80
2018-05-10T10:38:57.696Z,19.80
2018-05-10T10:41:24.862Z,19.90
2018-05-10T10:43:52.085Z,18.98
2018-05-10T10:46:19.284Z,19.10
2018-05-10T10:48:46.411Z,19.46
2018-05-10T10:51:13.643Z,19.68
2018-05-10T10:53:40.792Z,19.70
2018-05-10T10:56:07.911Z,19.78
2018-05-10T10:58:35.001Z,20.27
2018-05-10T11:01:02.124Z,20.71
2018-05-10T11:03:29.309Z,19.60
2018-05-10T11:05:56.713Z,19.97
2018-05-10T11:08:24.852Z,21.13
2018-05-10T11:10:52.043Z,20.76
2018-05-10T11:13:19.128Z,20.63
2018-05-10T11:15:46.254Z,20.34
2018-05-10T11:18:13.353Z,20.03
2018-05-10T11:20:40.521Z,19.75
2018-05-10T11:23:07.612Z,19.96
2018-05-10T11:25:34.873Z,20.44
2018-05-10T11:28:02.854Z,20.52
2018-05-10T11:30:30.016Z,20.95
2018-05-10T11:32:57.187Z,19.98
2018-05-10T11:35:24.270Z,19.68
2018-05-10T11:37:51.384Z,20.31
2018-05-10T11:40:18.527Z,21.31
2018-05-10T11:42:45.669Z,20.72
2018-05-10T11:45:12.786Z,21.10
2018-05-10T11:47:39.876Z,20.58
2018-05-10T11:50:07.069Z,20.32
2018-05-10T11:52:34.134Z,20.55
2018-05-10T11:55:01.264Z,20.55
2018-05-10T11:57:28.437Z,20.51
2018-05-10T11:59:55.697Z,20.58
2018-05-10T12:02:22.791Z,20.61
2018-05-10T12:04:49.866Z,20.97
2018-05-10T12:07:17.184Z,21.31
2018-05-10T12:09:44.257Z,22.36
2018-05-10T12:12:12.572Z,21.97
2018-05-10T12:14:39.667Z,21.92
2018-05-10T12:17:06.758Z,22.38
2018-05-10T12:19:33.834Z,22.51
2018-05-10T12:22:00.963Z,22.27
2018-05-10T12:24:28.187Z,23.18
2018-05-10T12:26:55.486Z,23.07
2018-05-10T12:29:22.923Z,22.93
2018-05-10T12:31:50.048Z,22.60
2018-05-10T12:34:17.235Z,22.53
2018-05-10T12:36:44.329Z,21.60
2018-05-10T12:39:12.029Z,21.21
2018-05-10T12:41:39.194Z,20.66
2018-05-10T12:44:06.297Z,20.40
2018-05-10T12:46:33.427Z,20.12
2018-05-10T12:49:00.541Z,20.47
2018-05-10T12:51:27.702Z,20.29
2018-05-10T12:53:54.798Z,20.51
2018-05-10T12:56:21.935Z,20.31
2018-05-10T12:58:49.093Z,20.06
2018-05-10T13:01:16.172Z,19.23
2018-05-10T13:03:43.239Z,18.99
2018-05-10T13:06:10.463Z,18.38
2018-05-10T13:08:37.554Z,18.22
2018-05-10T13:11:04.670Z,18.32
2018-05-10T13:13:31.872Z,18.38
2018-05-10T13:15:58.992Z,18.11
2018-05-10T13:18:26.084Z,18.04
2018-05-10T13:20:53.240Z,17.92
2018-05-10T13:23:20.378Z,18.00
2018-05-10T13:25:47.488Z,17.79
2018-05-10T13:28:14.589Z,18.00
2018-05-10T13:30:41.675Z,18.24
2018-05-10T13:33:08.774Z,18.25
2018-05-10T13:35:36.044Z,18.28
2018-05-10T13:38:03.117Z,18.35
2018-05-10T13:40:30.197Z,18.47
2018-05-10T13:42:57.284Z,18.56
2018-05-10T13:45:24.420Z,18.43
2018-05-10T13:47:51.564Z,18.39
2018-05-10T13:50:18.784Z,18.79
2018-05-10T13:52:45.888Z,18.58
2018-05-10T13:55:12.961Z,18.58
2018-05-10T13:57:40.055Z,18.67
2018-05-10T14:00:07.174Z,18.58
2018-05-10T14:02:34.278Z,18.02
2018-05-10T14:05:01.523Z,18.06
2018-05-10T14:07:28.631Z,17.92
2018-05-10T14:09:55.724Z,17.70
2018-05-10T14:12:22.820Z,17.74
2018-05-10T14:14:50.054Z,17.76
2018-05-10T14:17:17.194Z,17.71
2018-05-10T14:19:44.371Z,17.84
2018-05-10T14:22:11.473Z,17.83
2018-05-10T14:24:42.290Z,17.91
2018-05-10T14:27:09.474Z,17.89
2018-05-10T14:29:36.599Z,17.90
2018-05-10T14:32:03.724Z,17.88
2018-05-10T14:34:30.799Z,17.65
2018-05-10T14:36:57.943Z,17.58
2018-05-10T14:39:25.107Z,17.46
2018-05-10T14:41:52.305Z,17.29
2018-05-10T14:44:19.666Z,17.00
2018-05-10T14:46:47.474Z,16.81
2018-05-10T14:49:14.575Z,16.59
2018-05-10T14:51:41.675Z,16.82
2018-05-10T14:54:08.839Z,16.70
2018-05-10T14:56:36.314Z,16.40
2018-05-10T14:59:03.409Z,16.20
2018-05-10T15:01:30.544Z,16.03
2018-05-10T15:03:57.816Z,15.92
2018-05-10T15:06:24.978Z,15.94
2018-05-10T15:08:52.084Z,16.00
2018-05-10T15:11:19.198Z,15.69
2018-05-10T15:13:46.313Z,15.62
2018-05-10T15:16:13.493Z,15.47
2018-05-10T15:18:40.636Z,15.43
2018-05-10T15:21:07.789Z,15.39
2018-05-10T15:23:34.957Z,15.25
2018-05-10T15:26:02.039Z,15.15
2018-05-10T15:28:29.235Z,14.96
2018-05-10T15:30:56.383Z,14.93
2018-05-10T15:33:23.473Z,14.81
2018-05-10T15:35:50.583Z,14.92
2018-05-10T15:38:17.890Z,14.56
2018-05-10T15:40:44.980Z,14.57
2018-05-10T15:43:12.095Z,14.16
2018-05-10T15:45:39.208Z,14.03
2018-05-10T15:48:06.443Z,14.11
2018-05-10T15:50:33.535Z,14.14
2018-05-10T15:53:00.725Z,13.81
2018-05-10T15:55:27.825Z,13.65
2018-05-10T15:57:54.903Z,13.63
2018-05-10T16:00:22.250Z,13.74
2018-05-10T16:02:49.411Z,13.69
2018-05-10T16:05:16.537Z,13.56
2018-05-10T16:07:43.730Z,13.49
2018-05-10T16:10:10.830Z,13.58
2018-05-10T16:12:37.919Z,13.44
2018-05-10T16:15:05.140Z,13.61
2018-05-10T16:17:32.244Z,13.70
2018-05-10T16:19:59.349Z,13.62
2018-05-10T16:22:26.461Z,13.46
2018-05-10T16:24:53.598Z,13.48
2018-05-10T16:27:20.720Z,13.28
2018-05-10T16:29:47.884Z,13.27
2018-05-10T16:32:15.079Z,13.19
2018-05-10T16:34:42.230Z,13.39
2018-05-10T16:37:09.489Z,13.28
2018-05-10T16:39:36.713Z,13.33
2018-05-10T16:42:03.875Z,13.32
2018-05-10T16:44:31.625Z,13.35
2018-05-10T16:46:59.080Z,13.31
2018-05-10T16:49:26.554Z,13.34
2018-05-10T16:52:01.961Z,13.27
2018-05-10T16:54:29.551Z,13.24
2018-05-10T16:57:04.366Z,13.23
2018-05-10T16:59:31.778Z,13.19
2018-05-10T17:01:59.685Z,13.18
2018-05-10T17:04:26.953Z,13.25
2018-05-10T17:06:54.417Z,13.18
2018-05-10T17:09:21.666Z,13.20
2018-05-10T17:11:48.786Z,13.24
2018-05-10T17:14:15.994Z,13.30
2018-05-10T17:16:43.198Z,13.30
2018-05-10T17:19:10.922Z,13.32
2018-05-10T17:21:39.888Z,13.32
2018-05-10T17:24:08.596Z,13.38
2018-05-10T17:26:35.814Z,13.17
2018-05-10T17:29:03.320Z,13.23
2018-05-10T17:31:30.478Z,13.29
2018-05-10T17:33:59.323Z,13.27
2018-05-10T17:36:26.501Z,13.30
2018-05-10T17:38:53.710Z,13.37
2018-05-10T17:41:20.879Z,13.44
2018-05-10T17:43:48.013Z,13.50
2018-05-10T17:46:15.449Z,13.46
2018-05-10T17:48:42.591Z,13.21
2018-05-10T17:51:09.709Z,13.28
2018-05-10T17:53:37.204Z,13.37
2018-05-10T17:56:04.469Z,13.34
2018-05-10T17:58:36.063Z,13.28
2018-05-10T18:01:03.629Z,13.25
2018-05-10T18:03:30.709Z,13.23
2018-05-10T18:05:57.940Z,13.24
2018-05-10T18:08:25.076Z,13.20
2018-05-10T18:10:52.235Z,13.16
2018-05-10T18:13:19.619Z,13.19
2018-05-10T18:15:47.089Z,13.19
2018-05-10T18:18:14.238Z,13.14
2018-05-10T18:20:41.348Z,13.18
2018-05-10T18:23:08.509Z,12.67
2018-05-10T18:25:35.675Z,12.30
2018-05-10T18:28:02.811Z,11.90
2018-05-10T18:30:30.085Z,11.99
2018-05-10T18:32:57.233Z,12.01
2018-05-10T18:35:24.476Z,12.14
2018-05-10T18:37:51.550Z,12.34
2018-05-10T18:40:18.649Z,12.51
2018-05-10T18:42:45.827Z,12.59
2018-05-10T18:45:13.903Z,12.62
2018-05-10T18:47:41.150Z,12.75
2018-05-10T18:50:08.416Z,12.78
2018-05-10T18:52:35.663Z,12.76
2018-05-10T18:55:02.752Z,12.84
2018-05-10T18:57:29.901Z,12.85
2018-05-10T18:59:56.977Z,12.83
2018-05-10T19:02:24.153Z,12.80
2018-05-10T19:04:51.276Z,12.67
2018-05-10T19:07:18.488Z,12.62
2018-05-10T19:09:45.765Z,12.55
2018-05-10T19:12:13.058Z,12.46
2018-05-10T19:14:40.340Z,12.43
2018-05-10T19:17:07.552Z,12.48
2018-05-10T19:19:34.710Z,12.26
2018-05-10T19:22:01.836Z,12.09
2018-05-10T19:24:29.095Z,11.99
2018-05-10T19:26:56.489Z,12.12
2018-05-10T19:29:23.821Z,12.22
2018-05-10T19:31:51.051Z,12.25
2018-05-10T19:34:18.121Z,12.31
2018-05-10T19:36:45.227Z,12.33
2018-05-10T19:39:12.435Z,12.38
2018-05-10T19:41:40.450Z,12.29
2018-05-10T19:44:07.586Z,12.37
2018-05-10T19:46:34.716Z,12.37
2018-05-10T19:49:01.988Z,12.34
2018-05-10T19:51:29.179Z,12.36
2018-05-10T19:53:56.448Z,12.37
2018-05-10T19:56:23.568Z,12.38
2018-05-10T19:58:50.741Z,12.32
2018-05-10T20:01:17.955Z,12.31
2018-05-10T20:03:45.360Z,12.30
2018-05-10T20:06:12.502Z,12.29
2018-05-10T20:08:39.790Z,12.29
2018-05-10T20:11:06.994Z,12.36
2018-05-10T20:13:34.252Z,12.39
2018-05-10T20:16:01.437Z,12.44
2018-05-10T20:18:28.669Z,12.43
2018-05-10T20:20:56.735Z,12.44
2018-05-10T20:23:23.881Z,12.47
2018-05-10T20:25:51.040Z,12.42
2018-05-10T20:28:18.411Z,12.45
2018-05-10T20:30:45.553Z,12.48
2018-05-10T20:33:12.767Z,12.49
2018-05-10T20:35:39.910Z,12.49
2018-05-10T20:38:07.083Z,12.43
2018-05-10T20:40:34.333Z,12.43
2018-05-10T20:43:01.527Z,12.47
2018-05-10T20:45:28.577Z,12.44
2018-05-10T20:47:55.672Z,12.13
2018-05-10T20:50:22.934Z,11.95
2018-05-10T20:52:49.975Z,11.80
2018-05-10T20:55:17.120Z,11.63
2018-05-10T20:57:44.238Z,11.65
2018-05-10T21:00:11.626Z,11.75
2018-05-10T21:02:39.073Z,11.92
2018-05-10T21:05:06.693Z,12.00
2018-05-10T21:07:33.922Z,12.07
2018-05-10T21:10:01.250Z,12.14
2018-05-10T21:12:45.721Z,12.07
2018-05-10T21:15:13.026Z,12.07
2018-05-10T21:17:40.320Z,12.02
2018-05-10T21:20:07.617Z,12.00
2018-05-10T21:22:34.901Z,11.97
2018-05-10T21:25:02.057Z,12.04
2018-05-10T21:27:29.183Z,12.05
2018-05-10T21:29:56.286Z,12.09
2018-05-10T21:32:23.382Z,12.14
2018-05-10T21:34:50.473Z,12.16
2018-05-10T21:37:17.568Z,12.08
2018-05-10T21:39:45.714Z,12.08
2018-05-10T21:42:12.962Z,12.11
2018-05-10T21:44:40.297Z,12.15
2018-05-10T21:47:07.554Z,12.16
2018-05-10T21:49:40.598Z,12.14
2018-05-10T21:52:07.977Z,12.18
2018-05-10T21:54:35.096Z,12.18
2018-05-10T21:57:02.325Z,12.08
2018-05-10T21:59:29.432Z,12.12
2018-05-10T22:01:56.657Z,12.06
2018-05-10T22:04:24.372Z,12.06
2018-05-10T22:06:51.524Z,11.96
2018-05-10T22:09:18.689Z,11.95
2018-05-10T22:11:46.306Z,11.97
2018-05-10T22:14:13.427Z,11.75
2018-05-10T22:16:40.640Z,11.77
2018-05-10T22:19:07.741Z,11.74
2018-05-10T22:21:35.133Z,11.72
2018-05-10T22:24:02.389Z,11.77
2018-05-10T22:26:29.568Z,11.73
2018-05-10T22:28:56.680Z,11.77
2018-05-10T22:31:24.037Z,11.76
2018-05-10T22:33:51.140Z,11.78
2018-05-10T22:36:18.273Z,11.77
2018-05-10T22:38:45.377Z,11.71
2018-05-10T22:41:12.464Z,11.78
2018-05-10T22:43:39.730Z,11.78
2018-05-10T22:46:06.928Z,11.80
2018-05-10T22:48:34.167Z,11.78
2018-05-10T22:51:01.440Z,11.57
2018-05-10T22:53:28.612Z,11.62
2018-05-10T22:55:55.854Z,11.55
2018-05-10T22:58:23.177Z,11.58
2018-05-10T23:00:50.579Z,11.63
2018-05-10T23:03:17.823Z,11.68
2018-05-10T23:05:45.051Z,11.69
2018-05-10T23:08:12.200Z,11.60
2018-05-10T23:10:39.417Z,11.63
2018-05-10T23:13:06.524Z,11.63
2018-05-10T23:15:33.738Z,11.63
2018-05-10T23:18:00.837Z,11.60
2018-05-10T23:20:28.137Z,11.55
2018-05-10T23:22:55.226Z,11.52
2018-05-10T23:25:22.436Z,11.43
2018-05-10T23:27:49.527Z,11.31
2018-05-10T23:30:16.765Z,11.30
2018-05-10T23:32:43.949Z,11.28
2018-05-10T23:35:11.227Z,11.09
2018-05-10T23:37:38.513Z,10.85
2018-05-10T23:40:05.972Z,10.81
2018-05-10T23:42:33.212Z,10.74
2018-05-10T23:45:00.347Z,10.67
2018-05-10T23:47:27.567Z,10.66
2018-05-10T23:49:54.988Z,10.65
2018-05-10T23:52:22.402Z,10.71
2018-05-10T23:54:49.537Z,10.67
2018-05-10T23:57:16.657Z,10.71
2018-05-10T23:59:43.953Z,10.70
